EUROPE TAF - 2347 UTC

RocketRoute Online Flight Planning, FREE trial
Germany   France   Benelux   Austria   Swiss   Spain   Portugal   Italy   Baltic   Nordic   Other

Goto METARs

 

United Kingdom - 12 Dec 2017 - 2347 UTC

ABERDEEN DYCEEGPD121701Z 1218/1318 21009KT 9999 FEW015 SCT030 TEMPO 1219/1223 7000 -RA BKN014 PROB30 TEMPO 1219/1222 5000 RADZ BKN006 PROB40 TEMPO 1307/1310 6000 SHRA BKN014
BELFAST ALDERGROVEEGAA121702Z 1218/1318 21010KT 9999 FEW012 SCT025 TEMPO 1218/1219 19015G25KT 4000 RADZ BKN004 TEMPO 1300/1312 24015G25KT 6000 SHRA BKN007 PROB30 TEMPO 1308/1312 4000 SHRASN BKN004 TEMPO 1312/1318 24017G27KT 1200 SHRASN BKN004 BKN012CB PROB30 TEMPO 1316/1318 0500 SHSN BKN001
BIGGIN HILLEGKB 
BOURNEMOUTHEGHH122001Z 1221/1306 20009KT 9999 FEW030 TEMPO 1221/1303 21015G25KT 8000 -RA PROB30 TEMPO 1221/1302 RA BKN014 BECMG 1301/1304 27010KT
BRISTOLEGGDAMD 122150Z 1221/1318 19008KT 9999 SCT020 BECMG 1221/1223 5000 -RA BKN009 TEMPO 1221/1301 20018G28KT 3000 RADZ BKN004 PROB30 TEMPO 1222/1301 1400 BR BKN001 BECMG 1300/1303 25010KT 9999 NSW SCT009 PROB30 TEMPO 1301/1303 27015G25KT TEMPO 1305/1312 5000 SHRA BKN009 PROB40 TEMPO 1306/1312 2000 +SHRA BKN004 BECMG 1308/1311 26018G28KT PROB40 TEMPO 1310/1318 26022G38KT
CARDIFFEGFF121704Z 1218/1318 21010KT 9999 FEW045 TEMPO 1218/1301 23017G27KT 6000 RA BKN008 BECMG 1222/1301 30010KT BECMG 1305/1308 24018G28KT TEMPO 1305/1315 7000 SHRA BKN010 PROB30 TEMPO 1310/1313 24025G40KT +RA BKN008 TEMPO 1316/1318 24020G42KT 7000 SHRA PROB40 TEMPO 1316/1318 4000 +SHRA BKN008 BKN030CB
DONCASTER SHEFFIELDEGCN121710Z 1218/1318 21012KT 9999 FEW035 TEMPO 1218/1223 6000 -RADZ BKN010 PROB40 TEMPO 1220/1223 3000 RADZ BKN005 PROB40 TEMPO 1223/1306 3000 BR BKN005 PROB40 TEMPO 1306/1312 6000 BKN010 TEMPO 1310/1315 4000 SHRAGS BKN008 PROB40 TEMPO 1315/1318 4000 -SHRASN SHGS BKN005
DURHAM TEES VALLEYEGNV 
EAST MIDLANDSEGNXAMD 122300Z 1223/1318 20014KT 9999 SCT035 TEMPO 1223/1224 22017G27KT 4000 RADZ BR BKN004 PROB30 TEMPO 1300/1305 0300 FZFG BKN001 TEMPO 1307/1315 25018G32KT 6000 SHRA BKN005 PROB30 TEMPO 1310/1314 4000 +SHRA BKN003
EDINBURGHEGPHAMD 122013Z 1220/1318 24009KT 9999 SCT020 TEMPO 1220/1222 7000 RA BKN012 TEMPO 1304/1312 24015G25KT 5000 SHRA BKN010 PROB30 TEMPO 1309/1312 4000 SHRASN BKN008 PROB40 TEMPO 1312/1318 25015G25KT 2000 SHRASN -SHSN BKN006
EXETEREGTEAMD 122333Z 1223/1302 22008KT 9999 SCT012 PROB30 TEMPO 1223/1302 23015G25KT 7000 RA BKN008
FARNBOROUGHEGLF 
GLASGOWEGPFAMD 121923Z 1219/1318 21009KT 9999 FEW030 TEMPO 1219/1220 6000 -RADZ BKN010 PROB40 TEMPO 1219/1220 3000 RADZ BKN005 PROB40 TEMPO 1219/1220 21015G25KT PROB30 TEMPO 1220/1302 7000 SHRA BKN012 TEMPO 1302/1306 6000 SHRA BKN009 PROB40 TEMPO 1303/1306 23018G28KT TEMPO 1306/1318 23015G25KT 4000 -SHRASN SHRAGS BKN007 PROB40 TEMPO 1309/1318 1400 SHSN BKN003
GUERNSEYEGJB121703Z 1218/1303 21018KT 9999 FEW020 BKN030 PROB40 TEMPO 1218/1219 8000 SHRA BKN015CB BECMG 1219/1221 20025G35KT 5000 RA BKN015 BECMG 1301/1303 28020KT 9999 NSW BKN030
HUMBERSIDEEGNJ121957Z 1221/1306 20012KT 9999 SCT018 TEMPO 1221/1224 6000 -RADZ BKN010 PROB40 TEMPO 1221/1223 3000 RADZ BKN004 PROB40 TEMPO 1221/1224 21016G26KT PROB40 TEMPO 1223/1306 3000 BR BKN004
INVERNESSEGPECOR 122057Z 1221/1306 24010KT 9999 SCT025 PROB30 TEMPO 1221/1224 7000 SHRA
JERSEYEGJJ121703Z 1218/1303 21018KT 9999 FEW020 BKN030 PROB40 TEMPO 1218/1220 8000 SHRA BKN015CB BECMG 1220/1222 19024G34KT 5000 RA BKN015 BECMG 1302/1303 28020KT 9999 NSW BKN030
KIRKWALLEGPA121956Z 1221/1306 19012KT 9999 BKN025 TEMPO 1221/1223 18016G26KT 6000 RA BKN007 PROB30 TEMPO 1221/1223 4000 RADZ BKN005 BECMG 1222/1301 26015KT TEMPO 1223/1306 6000 SHRA BKN014
LEEDS BRADFORDEGNMAMD 122150Z 1221/1318 23010KT 9999 SCT020 TEMPO 1221/1224 22018G28KT 6000 RA BKN010 PROB30 TEMPO 1221/1224 4000 RADZ BKN006 TEMPO 1308/1314 24015G25KT 7000 SHRA BKN012 PROB30 TEMPO 1310/1314 24018G35KT 4000 +SHRA BKN009 TEMPO 1314/1318 26015G25KT 4000 SHRASN BKN009 PROB30 TEMPO 1314/1318 26022G35KT 1400 +SHRASN SHSN BKN002
LIVERPOOLEGGP121704Z 1218/1318 20013KT 9999 FEW045 TEMPO 1218/1224 22015G25KT 6000 RA BKN008 PROB30 TEMPO 1218/1224 4000 +RA RADZ BKN004 TEMPO 1300/1307 BKN003 BECMG 1307/1310 26012KT TEMPO 1307/1315 7000 SHRA BKN010 PROB30 TEMPO 1310/1312 28018G28KT 4000 +SHRA BKN008 TEMPO 1317/1318 7000 SHRA PROB30 TEMPO 1317/1318 27020G30KT 4000 +SHRA BKN014CB
LONDON CITYEGLC 
LONDON GATWICKEGKKAMD 122020Z 1220/1324 19006KT 9999 SCT030 TEMPO 1220/1224 8000 RA BKN012 BECMG 1300/1303 BKN012 TEMPO 1300/1305 19015G25KT 6000 RA BKN008 PROB30 TEMPO 1300/1305 3000 RADZ BKN004 BECMG 1305/1308 BKN030 TEMPO 1310/1316 7000 SHRA PROB40 TEMPO 1313/1316 26015G28KT 4000 +SHRA BKN014 TEMPO 1320/1324 26015G30KT 7000 SHRA PROB40 TEMPO 1320/1322 4000 +SHRA BKN014
LONDON HEATHROWEGLL121656Z 1218/1324 20010KT CAVOK PROB30 TEMPO 1218/1221 7000 BECMG 1219/1222 BKN025 TEMPO 1221/1306 7000 -RA BKN012 PROB30 TEMPO 1223/1306 20015G25KT 3000 RADZ BKN005 TEMPO 1310/1316 27018G28KT 7000 SHRA BKN012 PROB30 TEMPO 1312/1316 4000 +SHRA BECMG 1318/1321 26020G30KT TEMPO 1320/1324 6000 SHRA BKN012
LONDON LUTONEGGWAMD 122104Z 1221/1318 23006KT 9999 FEW020 BECMG 1221/1224 6000 -RA BKN012 PROB30 TEMPO 1222/1302 23015G25KT TEMPO 1223/1302 4000 RADZ BKN003 PROB30 1223/1302 0300 FG BKN001 BECMG 1302/1305 0300 RADZ FG BKN001 BECMG 1303/1305 29010KT BECMG 1305/1308 9999 NSW FEW045 TEMPO 1308/1315 7000 SHRA BKN010 PROB40 TEMPO 1309/1315 4000 +SHRA BKN007 BECMG 1315/1318 28015G25KT
LONDON STANSTEDEGSSAMD 122104Z 1221/1324 22006KT 9999 FEW020 BECMG 1221/1224 6000 -RA BKN012 PROB30 TEMPO 1222/1302 23015G25KT TEMPO 1300/1306 3000 RADZ BKN003 PROB30 TEMPO 1302/1307 0300 FG BKN001 BECMG 1303/1305 28010KT BECMG 1306/1309 22012KT 9999 NSW SCT020 TEMPO 1310/1315 21015G25KT 7000 SHRA BKN009 PROB30 TEMPO 1310/1315 3000 +SHRA BECMG 1315/1318 28015G25KT BECMG 1318/1321 22012KT TEMPO 1320/1324 21015G27KT 6000 SHRA BKN010 PROB30 TEMPO 1321/1324 3000 +SHRA BKN006
LYDDEGMD122012Z 1221/1306 21015KT 9999 FEW020 BECMG 1221/1224 21025KT TEMPO 1222/1306 7000 RA BKN012 PROB40 TEMPO 1301/1305 23028G40KT 3000 SHRA BKN007 BECMG 1303/1306 26015KT
MANCHESTEREGCC121704Z 1218/1324 19013KT 9999 FEW045 TEMPO 1218/1224 22015G25KT 6000 RA BKN008 PROB30 TEMPO 1218/1224 4000 +RA RADZ BKN004 TEMPO 1300/1307 BKN003 PROB30 1303/1305 0300 FZFG VV/// BECMG 1307/1310 25010KT TEMPO 1307/1315 7000 SHRA BKN010 PROB30 TEMPO 1310/1312 28018G28KT 4000 +SHRA BKN008 TEMPO 1317/1324 27018G28KT 4000 SHRASN BKN014CB PROB30 TEMPO 1317/1324 1400 +SHRASN SHSN BKN002
MANSTONEGMH 
NEWCASTLEEGNT121710Z 1218/1318 24008KT 9999 FEW030 TEMPO 1218/1222 18012KT 6000 RA BKN009 PROB30 TEMPO 1222/1306 7000 BKN012 TEMPO 1306/1312 6000 SHRA BKN009 PROB40 TEMPO 1309/1312 25015G25KT TEMPO 1312/1318 4000 -SHRASN SHGS BKN008 PROB40 TEMPO 1315/1318 BKN004
NORWICHEGSH122012Z 1221/1224 20009KT 9999 SCT020 PROB40 TEMPO 1222/1224 6000 RA BKN010
PRESTWICKEGPK121710Z 1218/1318 20009KT 9999 FEW035 BECMG 1218/1221 27012KT TEMPO 1218/1221 21018G30KT 6000 RA BKN008 PROB40 TEMPO 1221/1302 25015G25KT 7000 SHRA BKN012 BECMG 1302/1305 21014KT TEMPO 1302/1308 23018G30KT 6000 SHRA BKN009 PROB40 TEMPO 1308/1312 23018G28KT 4000 -SHRASN SHRAGS BKN007 TEMPO 1312/1318 23018G28KT 4000 -SHRASN SHRAGS BKN007 PROB40 TEMPO 1312/1318 1400 SHSN BKN003
SHOREHAMEGKA 
SOUTHAMPTONEGHI 
SOUTHENDEGMC122012Z 1221/1306 20008KT 9999 FEW020 TEMPO 1222/1306 7000 RA BKN012 PROB40 TEMPO 1223/1304 23015G25KT 3000 RADZ BKN007 BECMG 1304/1306 27012KT TEMPO 1304/1306 3000 DZ BKN004
WICKEGPC121956Z 1221/1306 20012KT 9999 SCT025 BECMG 1221/1223 26009KT TEMPO 1221/1222 20016G26KT 6000 RA BKN006 PROB30 TEMPO 1222/1301 6000 SHRA BKN014
GIBRALTARLXGB 

Goto METARs

 

Germany - 12 Dec 2017 - 2347 UTC

BRANDENBURGEDDB121700Z 1218/1318 25015KT 9999 BKN015 TEMPO 1218/1221 4000 -RASN BKN009 BECMG 1221/1224 22010KT PROB30 TEMPO 1221/1306 BKN012 PROB30 TEMPO 1309/1318 18015G25KT
BREMENEDDW121700Z 1218/1318 25008KT 9999 FEW007 TEMPO 1218/1305 BKN007 BECMG 1308/1310 18012KT BECMG 1309/1311 OVC005 TEMPO 1309/1317 20015G25KT 3000 -RASN OVC003
DRESDENEDDCAMD 121924Z 1219/1318 24015KT 9999 SCT040 TEMPO 1219/1222 26015G25KT BECMG 1220/1222 20010KT PROB30 TEMPO 1312/1318 17015G25KT
DUSSELDORFEDDL121700Z 1218/1324 23010KT 9999 BKN012 TEMPO 1218/1222 BKN015 BECMG 1222/1301 17011KT SCT020 BECMG 1303/1306 18015G25KT TEMPO 1308/1314 19020G30KT RA TEMPO 1319/1323 21020G35KT RA BKN013
FRANKFURT HAHNEDFH121700Z 1218/1318 24008KT 9999 BKN020 TEMPO 1220/1309 BKN006 BECMG 1305/1307 22015G25KT TEMPO 1310/1316 22020G35KT 1200 SN BKN004 TEMPO 1316/1318 2000 SNRA BKN005
FRANKFURT MAINEDDF121700Z 1218/1324 20007KT 9999 SCT035 TEMPO 1218/1309 BKN035 BECMG 1307/1310 20015G25KT TEMPO 1312/1314 4000 RASN BKN030 TEMPO 1314/1324 RA BKN015
HAMBURGEDDH121700Z 1218/1324 25008KT 9999 SCT005 BKN025 TEMPO 1218/1302 3500 BR BKN004 TEMPO 1302/1305 3500 BR BKN007 BECMG 1309/1311 18012KT TEMPO 1309/1314 20015G25KT BECMG 1310/1313 OVC005 TEMPO 1313/1317 3000 -RASN OVC003 TEMPO 1322/1324 BKN010
HANNOVEREDDV121700Z 1218/1318 25010KT 9999 BKN006 TEMPO 1220/1301 BKN012 BECMG 1300/1302 SCT006 BKN020 BECMG 1308/1310 18012KT BECMG 1309/1311 OVC010 TEMPO 1309/1318 22015G25KT 3000 -RASN OVC005
HERINGSDORFEDAH121400Z 1215/1224 25015G30KT 9999 BKN010 TEMPO 1215/1220 2500 -RASN BKN004 BECMG 1216/1219 25012KT
KARLSRUHE BADEN BADENEDSB121700Z 1218/1318 22008KT 9999 SCT040 PROB30 TEMPO 1218/1220 4000 SHRASN BKN015CB BECMG 1307/1310 20013KT TEMPO 1310/1318 20015G30KT TEMPO 1312/1318 RA
KASSEL CALDENEDVK122000Z 1221/1303 23006KT 9999 SCT025 BKN045 BECMG 1223/1301 20012KT
KOLN BONNEDDK121700Z 1218/1324 26006KT 9999 BKN020 BECMG 1218/1221 16007KT TEMPO 1218/1221 BKN013 BECMG 1305/1308 16012KT TEMPO 1310/1315 18015G25KT RA TEMPO 1320/1324 RA BECMG 1321/1324 22011KT
LAAGEETNLAMD 122050Z 1220/1306 24008KT 9999 NSW SCT010 BKN030 TEMPO 1220/1306 22010KT 4000 BR BKN005 BKN030 BY ETGL
LEIPZIG HALLEEDDP121700Z 1218/1318 24020G30KT 9999 SCT030 BECMG 1218/1220 22011KT BECMG 1307/1309 19015G25KT
LUBECK BLANKENSEEEDHL 
MUNCHENEDDM121700Z 1218/1324 23006KT 9999 SCT040 BECMG 1308/1310 16005KT BECMG 1317/1319 23008KT TEMPO 1318/1320 3000 SN BKN010 PROB30 TEMPO 1320/1322 RASN BKN014
MUNSTER OSNABRUCKEDDG121700Z 1218/1318 20009KT 9999 BKN011 TEMPO 1218/1222 BKN007 BECMG 1221/1224 SCT020 BECMG 1306/1309 20014KT TEMPO 1309/1318 20015G25KT RA BECMG 1313/1315 BKN013
NURNBERGEDDN121700Z 1218/1318 21005KT 9999 SCT030 PROB30 TEMPO 1220/1306 4500 -SHSN SCT020TCU BECMG 1315/1317 20015G25KT TEMPO 1316/1318 3000 SN BKN010
PADERBORN LIPPSTADTEDLP121700Z 1218/1318 23010KT 9999 SCT015 BKN020 TEMPO 1218/1223 BKN012 BECMG 1303/1306 19015G25KT TEMPO 1310/1318 21020G35KT RA
SAARBRUCKENEDDR121700Z 1218/1318 22008KT 9999 FEW008 BKN025 PROB30 TEMPO 1220/1306 BKN008 BECMG 1306/1309 20015G30KT TEMPO 1310/1313 3000 SNRA BKN012 TEMPO 1314/1318 4000 RASN BKN008
STUTTGARTEDDS121700Z 1218/1318 24005KT 9999 SCT035 BECMG 1222/1224 VRB03KT BECMG 1308/1311 19008KT TEMPO 1314/1318 SNRA
SYLTEDXW 
TEGELEDDT121700Z 1218/1318 25015KT 9999 BKN015 TEMPO 1218/1221 4000 -RASN BKN009 BECMG 1221/1224 22010KT TEMPO 1221/1306 BKN011 PROB30 TEMPO 1309/1318 18015G25KT

Goto METARs

 

France - 12 Dec 2017 - 2347 UTC

AIX LES BAINSLFLB122045Z 1220/1312 VRB02KT 9999 BKN015 BECMG 1308/1310 18010KT CAVOK
ANGLETLFBZ121700Z 1218/1318 23005KT 9999 SCT035 TEMPO 1309/1312 21015G25KT -RA BKN030
AUVERGNELFLC122000Z 1221/1321 18010KT CAVOK TEMPO 1309/1312 -RA BKN050 BKN090 TEMPO 1309/1315 18015G25KT BECMG 1316/1318 18015G25KT BKN050 TEMPO 1318/1321 -RA OVC040 PROB30 TEMPO 1318/1321 21020G40KT
BALE MULHOUSELFSB121700Z 1218/1318 20004KT 9999 FEW030 BECMG 1312/1314 22010KT BKN030 TEMPO 1314/1318 -RA
BELLEGARDELFBL121700Z 1218/1318 16005KT 9999 BKN040 BECMG 1219/1221 BKN008 OVC025 BECMG 1221/1224 OVC004 TEMPO 1301/1306 3000 BR OVC002 TEMPO 1306/1312 3000 -RADZ OVC002 BECMG 1312/1314 OVC002
BIARDLFBI 
BLAGNACLFBO121700Z 1218/1324 VRB03KT 9999 FEW030 TEMPO 1316/1320 25010KT BECMG 1320/1322 26012KT
BRETAGNELFRBAMD 122139Z 1221/1324 21012KT 9999 OVC010 TEMPO 1221/1302 24015G25KT 3000 -RA OVC003 BECMG 1302/1304 28008KT BKN020 BECMG 1309/1312 21015G25KT 3000 RA SCT003 OVC005 BECMG 1315/1317 27020G30KT 9999 NSW BKN025 TEMPO 1317/1324 27025G40KT 3000 SHRA BKN015TCU
BRONLFLY122005Z 1220/1318 VRB02KT 6000 NSC TEMPO 1220/1308 3000 BR PROB30 TEMPO 1222/1308 0800 FG VV/// BECMG 1308/1310 18010KT TEMPO 1312/1314 -RA BKN040 OVC060 BECMG 1314/1315 18015G25KT BECMG 1316/1318 18018G30KT
CARPIQUETLFRK121400Z 1215/1224 21008KT 9999 SCT040 BECMG 1218/1221 20013KT TEMPO 1222/1224 20015G25KT
COTE D AZURLFMN122000Z 1221/1403 32010KT CAVOK BECMG 1309/1311 20008KT TEMPO 1318/1403 24017G30KT
ENTZHEIMLFSTAMD 121907Z 1219/1318 20008KT 9999 SCT040 PROB30 TEMPO 1219/1221 4000 SHRASN BECMG 1312/1314 OVC030 TEMPO 1314/1318 -RA PROB40 TEMPO 1314/1318 18015G25KT
GARONSLFTW121400Z 1218/1315 33005KT CAVOK
LANN BIHOUELFRH121700Z 1218/1318 23012KT 9999 BKN035 BECMG 1221/1223 22015G25KT 4000 RA SCT010 OVC015 TEMPO 1300/1302 22020G32KT OVC009 BECMG 1303/1304 28012KT 9999 NSW SCT020 BECMG 1310/1311 24015G30KT BECMG 1312/1313 22020G35KT 3000 RA SCT006 OVC010 TEMPO 1314/1315 25025G40KT 1500 +RA OVC005 BECMG 1315/1316 28015G30KT 9999 NSW BKN025
LE BOURGETLFPB121700Z 1219/1318 20005KT 9999 SCT020 BECMG 1222/1224 BKN009 PROB40 TEMPO 1300/1303 BKN004 BECMG 1303/1305 19015G25KT 4000 -RA TEMPO 1305/1309 3000 RA BKN004 PROB40 TEMPO 1306/1310 19015G30KT TEMPO 1315/1318 3000 RA BKN005 PROB40 1316/1318 21020G30KT
LESQUINLFQQ121700Z 1218/1324 22005KT CAVOK BECMG 1222/1224 20015KT BECMG 1303/1305 3000 RADZ OVC007 TEMPO 1305/1310 20020G35KT PROB30 TEMPO 1305/1307 1200 RASN OVC003 BECMG 1307/1309 9999 NSW TEMPO 1309/1320 2000 RADZ OVC003 TEMPO 1315/1320 20020G40KT FM132000 27015G25KT 9999 BKN030
LE TOUQUETLFAT121400Z 1215/1224 24007KT 9999 BKN030 PROB30 TEMPO 1219/1224 4000 SHRA
MEDITERRANEELFMT122000Z 1221/1321 VRB05KT CAVOK TEMPO 1318/1321 BKN014
MERIGNACLFBD120500Z 1206/1312 VRB03KT CAVOK TEMPO 1206/1209 1500 BCFG BECMG 1304/1306 18013KT TEMPO 1223/1306 1500 BCFG BECMG 1306/1308 BKN020 TEMPO 1308/1312 -RA BKN012 TX09/1215Z TN01/1206Z
NANTES ATLANTIQUELFRS121700Z 1218/1324 22003KT CAVOK PROB30 TEMPO 1218/1220 -SHRA SCT035TCU BECMG 1302/1304 5000 -RA BKN010 TEMPO 1304/1306 25015G25KT 3000 RA BKN005 TEMPO 1306/1312 24008KT 7000 -RA SCT010 BKN020 BECMG 1310/1312 24015KT 5000 -RA BKN010 TEMPO 1312/1318 RA BKN007 BKN030 BECMG 1315/1318 27020G35KT
NAPOLEON BONAPARTELFKJ122000Z 1221/1321 VRB05KT 9999 SCT040 OVC060 TEMPO 1221/1224 4000 RA BKN010 FEW025TCU BECMG 1310/1312 30010KT
PARIS CHARLES DE GAULLELFPG121700Z 1219/1324 20005KT 9999 SCT020 BECMG 1222/1224 BKN009 PROB40 TEMPO 1300/1303 BKN004 BECMG 1303/1305 19015G25KT 4000 -RA TEMPO 1305/1309 3000 RA BKN004 PROB40 TEMPO 1306/1310 19015G30KT TEMPO 1315/1320 3000 RA BKN005 PROB40 1316/1324 21020G30KT TX08/1321Z TN02/1222Z
PARIS ORLYLFPO 
PLEURTUITLFRD121700Z 1218/1318 18010KT 9999 BKN030 BECMG 1222/1224 19015G25KT 5000 RA BECMG 1300/1302 BKN010 TEMPO 1301/1304 2000 BKN003 BECMG 1303/1305 24012KT 9999 NSW SCT020 BECMG 1309/1312 22015G25KT BECMG 1311/1313 5000 RA BKN010 BECMG 1316/1318 26015G28KT 9999 NSW BKN025
PORETTALFKB122000Z 1221/1321 VRB05KT 9999 SCT030 BKN070 OVC110 BECMG 1301/1303 23010KT TX15/1313Z TN08/1304Z
PROVENCELFML122000Z 1221/1403 33012KT CAVOK BECMG 1306/1309 VRB05KT TEMPO 1318/1403 BKN035 TX09/1315Z TN02/1306Z
RIVESALTESLFMPAMD 121811Z 1218/1315 32010KT CAVOK BECMG 1220/1222 VRB03KT
SAINT EXUPERYLFLLAMD 122109Z 1221/1324 VRB05KT CAVOK PROB40 TEMPO 1221/1307 2000 BR PROB30 TEMPO 1221/1306 0800 BCFG BECMG 1306/1309 18010KT BECMG 1312/1315 18015G25KT -RA PROB30 TEMPO 1318/1324 18025G40KT
ST JACQUESLFRN121700Z 1218/1318 17005KT 9999 BKN030 BECMG 1220/1222 18010KT BECMG 1223/1301 5000 RA BECMG 1301/1303 BKN010 TEMPO 1302/1305 22015G25KT 2000 BKN003 BECMG 1304/1306 25010KT 9999 NSW SCT020 BECMG 1309/1312 22013KT BECMG 1310/1313 5000 RA BKN010 BECMG 1316/1318 9999 NSW BKN025 TEMPO 1315/1318 28015G25KT
TILLELFOB121700Z 1218/1318 20005KT CAVOK BECMG 1302/1305 3000 RADZ OVC007 TEMPO 1305/1308 24020G30KT OVC003 PROB30 TEMPO 1305/1308 1200 RASN BECMG 1308/1310 9999 NSW TEMPO 1310/1318 2000 RADZ OVC003 TEMPO 1314/1318 24020G35KT
TOUSSUS LE NOBLELFPN 
VAL DE LOIRELFOT121700Z 1218/1318 20006KT CAVOK BECMG 1302/1304 BKN012 TEMPO 1304/1309 20015G30KT 3000 RA BKN006 TEMPO 1309/1311 BKN006 TEMPO 1315/1318 3000 RA BKN004 TEMPO 1317/1318 21015G30KT

Goto METARs

 

Benelux - 12 Dec 2017 - 2347 UTC

BRUSSELS NATLEBBR121710Z 1218/1324 20010KT 9999 FEW020 SCT040 TEMPO 1300/1324 20015G25KT TEMPO 1306/1310 4000 RADZ SCT005 BKN007 TEMPO 1315/1319 4000 RA SHRA SCT008 BKN012
BRUSSELS SOUTHEBCI121710Z 1218/1324 19010KT 9999 FEW020 SCT040 TEMPO 1300/1324 20015G25KT BECMG 1304/1306 SCT010 BKN012 TEMPO 1306/1310 4000 RADZ SCT005 BKN007 TEMPO 1315/1319 4000 RA SHRA SCT007 BKN010
DEURNEEBAW122000Z 1221/1306 20010KT 7000 FEW020 SCT040 BECMG 1303/1305 20015G25KT BKN014 TEMPO 1305/1306 4000 RADZ SCT005 BKN008
LIEGEEBLG121710Z 1218/1324 19010KT 9999 FEW020 SCT040 TEMPO 1301/1324 20015G25KT BECMG 1305/1307 SCT010 BKN012 TEMPO 1307/1311 4000 RADZ SCT005 BKN007 TEMPO 1317/1321 4000 RA SHRA SCT007 BKN010
OOSTENDEEBOS121710Z 1218/1324 19010KT 9999 FEW020 SCT045 TEMPO 1300/1309 20020G36KT TEMPO 1303/1308 4000 RADZ SCT007 BKN009 BECMG 1307/1309 26017KT TEMPO 1313/1317 22018G30KT TEMPO 1315/1318 4000 RA SHRA SCT008 BKN012
EINDHOVENEHEH121720Z 1218/1324 21007KT 4000 BR BKN005 OVC007 BECMG 1219/1222 6000 NSW FEW012 SCT020 PROB30 1222/1306 3000 BR BECMG 1300/1303 19015G25KT BECMG 1306/1308 4000 -RASN SCT008 BKN012 TEMPO 1306/1312 3000 RASN SCT005 BKN009 BECMG 1311/1313 9999 NSW FEW005 SCT012 BKN020 PROB40 TEMPO 1311/1324 4000 SHRA SCT005 BKN010 SCT015CB TEMPO 1317/1322 4500 RA SCT005 BKN008 OVC010 BECMG 1322/1324 26012KT SCT020
EELDEEHGGAMD 122111Z 1221/1324 21012KT 6000 BKN003 BECMG 1221/1223 2000 BR BECMG 1223/1302 9999 NSW SCT020 BECMG 1306/1309 19018G28KT 4000 -RASN BKN006 PROB40 TEMPO 1307/1311 2000 SNRA BKN003 PROB30 TEMPO 1311/1313 2500 RASN BKN004 BECMG 1312/1315 22014KT 9999 NSW BKN020 BECMG 1315/1318 18017G27KT 6000 -RA BKN012 TEMPO 1318/1322 4000 RA BKN006 BECMG 1321/1324 26014KT 9999 NSW SCT020
MAASTRICHTEHBK121723Z 1218/1324 22011KT 9999 BKN012 BECMG 1218/1221 SCT020 BECMG 1300/1303 19018KT BECMG 1307/1310 21023G33KT 7000 -RA BKN012 TEMPO 1308/1312 4000 RA RASN BKN006 BECMG 1312/1315 22016KT 9999 NSW BKN018 BECMG 1315/1318 20020G30KT 7000 -RA BKN012 TEMPO 1318/1322 4000 RA BKN006 BECMG 1321/1324 25014KT 9999 NSW SCT020
ROTTERDAMEHRD121713Z 1218/1324 20013KT 9999 FEW025 BECMG 1304/1306 19017G27KT 6000 RA SCT008 BKN012 TEMPO 1304/1310 3000 DZRA BKN005 PROB30 TEMPO 1304/1307 RASN BECMG 1310/1312 25015G25KT 9999 NSW SCT020 BECMG 1316/1318 20018G28KT 7000 RA SCT008 BKN012 PROB30 TEMPO 1318/1320 4500 SHRA SCT008 BKN012 SCT015CB BECMG 1319/1321 27015G25KT 9999 NSW SCT025
SCHIPHOLEHAM121713Z 1218/1324 20013KT 9999 FEW025 BECMG 1304/1306 19017G27KT 6000 RA SCT008 BKN012 TEMPO 1304/1310 3000 DZRA BKN005 PROB30 TEMPO 1304/1307 RASN BECMG 1310/1312 25015G25KT 9999 NSW SCT020 BECMG 1316/1318 20018G28KT 7000 RA SCT008 BKN012 PROB30 TEMPO 1318/1320 4500 SHRA SCT008 BKN012 SCT015CB BECMG 1319/1321 27015G25KT 9999 NSW SCT025
LUXEMBOURGELLXAMD 121900Z 1218/1324 24010KT 9999 BKN005 BECMG 1222/1224 18005KT 2500 BR BKN003 BECMG 1306/1309 18015G25KT 3000 -SN BKN005 BKN007 BECMG 1313/1315 7000 -RA BKN015 TEMPO 1313/1318 RA BKN012 BECMG 1320/1322 RA SCT005 BKN007 BECMG 1322/1324 25015G30KT

Goto METARs

 

Austria - 12 Dec 2017 - 2347 UTC

GRAZ INTLLOWGAMD 121834Z 1218/1318 06005KT 9999 FEW007 BKN025 TX06/1218Z TNM01/1318Z TEMPO 1218/1222 8000 RA BKN012 BECMG 1221/1223 4000 -RASN PROB40 TEMPO 1223/1306 1400 SN VV006 PROB30 TEMPO 1306/1309 1200 BCFG BKN003 BECMG 1308/1310 9999 NSW FEW010 BKN060
INNSBRUCKLOWIAMD 122124Z 1221/1318 VRB02KT 6000 -SN SCT005 OVC020 TX03/1313Z TNM01/1307Z TEMPO 1221/1223 1500 SN VV006 BECMG 1222/1224 NSW BKN010 PROB40 1223/1310 OVC005 BECMG 1309/1311 9999 FEW010 SCT050
KLAGENFURT WORTHERSEELOWK121715Z 1218/1318 VRB02KT 8000 FEW002 SCT030 BKN130 TX04/1218Z TN01/1308Z PROB40 TEMPO 1218/1221 3000 BR SCT002 BKN005 TEMPO 1220/1223 4000 -RA SCT010 BKN040 TEMPO 1223/1315 -RASN SCT010 BKN030 PROB30 TEMPO 1303/1310 2000 SN BKN008
LINZ INTLLOWL121715Z 1218/1318 25005KT 9999 FEW020 SCT050 BKN120 TX04/1313Z TN00/1307Z TEMPO 1218/1222 27012KT -SHRASN BKN020 PROB30 1304/1308 VRB02KT 4000 BR BKN012 BECMG 1308/1310 08005KT CAVOK
SALZBURGLOWS121715Z 1218/1318 32008KT 9999 SCT040 BKN060 TX04/1312Z TNM02/1306Z TEMPO 1218/1224 4000 -SHSN SCT012 BKN025 BECMG 1218/1220 16007KT BECMG 1304/1306 FEW050 SCT120 BECMG 1308/1310 CAVOK BECMG 1316/1318 9999 FEW080 BKN120
VIENNA SCHWECHATLOWW121715Z 1218/1324 30010KT 9999 FEW045 BKN060 TX06/1312Z TN02/1322Z TEMPO 1218/1222 31017KT -RA BECMG 1312/1314 15005KT CAVOK
W NEUSTADT DIAMOND HQLOAN 
ZELTWEGLOXZ121415Z 1215/1224 07008KT 9999 SCT050 BKN120 BECMG 1218/1221 VRB03KT 5000 -RASN FEW010 SCT040 BKN050

Goto METARs

 

Switzerland - 12 Dec 2017 - 2347 UTC

APLNACHLSMA 
BASELLFSB121700Z 1218/1318 20004KT 9999 FEW030 BECMG 1312/1314 22010KT BKN030 TEMPO 1314/1318 -RA
BERNLSZB121425Z 1215/1224 VRB03KT 9999 FEW010 BKN020 TEMPO 1215/1220 2500 -SHSN BKN009
BUOCHSLSZC121425Z 1215/1224 VRB03KT 9999 BKN015 PROB40 TEMPO 1215/1219 4000 -SNRA BKN010
DUBENDORFLSMD 
EMMENLSME 
GALLEN-ALTENRHEINLSZR121425Z 1215/1224 10005KT 9999 FEW020 BKN035 TEMPO 1215/1222 4500 -SN BKN013
GENEVALSGG122025Z 1221/1403 VRB03KT CAVOK TX04/1315Z TNM04/1306Z PROB30 TEMPO 1305/1309 0600 FZFG VV003 BECMG 1309/1311 23010KT 9999 SCT140 TEMPO 1315/1403 24015G25KT PROB40 TEMPO 1318/1403 4500 RA
GRENCHENLSZG121425Z 1215/1224 24004KT 9999 SCT015 BKN025
LES EPLATURESLSGC121425Z 1215/1224 24007KT 9999 FEW010 BKN030 BECMG 1219/1221 CAVOK
LOCARNOLSZL121725Z 1218/1303 08005KT 5000 BR SCT100 PROB30 TEMPO 1221/1224 1200 BCFG BKN004
LUGANOLSZA121425Z 1215/1224 VRB03KT 9999 SCT045 BKN160
MEIRINGENLSMM 
PAYERNELSMP 
SAMEDANLSZS121425Z 1215/1224 21006KT 9999 SCT020 BKN035 TX00/1215Z PROB40 TEMPO 1215/1224 2500 -SN BKN014
SIONLSGS121425Z 1215/1224 VRB03KT 9999 SCT015 BKN080 BECMG 1218/1221 CAVOK
ZURICH-KLOTENLSZHAMD 122117Z 1221/1403 VRB03KT CAVOK TX04/1314Z TNM03/1306Z BECMG 1221/1301 3000 MIFG NSC PROB40 TEMPO 1303/1309 0300 FZFG VV001 BECMG 1307/1309 CAVOK BECMG 1311/1314 23006KT 9999 SCT025 BKN035 TEMPO 1314/1403 5000 -SHRA BKN013

Goto METARs

 

Espana - 12 Dec 2017 - 2347 UTC

ALICANTELEAL121700Z 1218/1318 31008KT CAVOK TX17/1312Z TN04/1306Z TEMPO 1218/1220 VRB04KT TEMPO 1313/1318 24010KT
ALMERIALEAM122000Z 1221/1321 02005KT 9999 SCT040 TX14/1314Z TN06/1307Z
AVILESLEAS122000Z 1221/1321 23009KT 9999 FEW060 TX16/1314Z TN07/1221Z TEMPO 1300/1321 25015G28KT TEMPO 1318/1321 3000 RA BKN014
BADAJOZLEBZ121700Z 1218/1318 30003KT CAVOK TX13/1315Z TNM01/1308Z
BARCELONALEBL121700Z 1218/1318 34008KT 9999 SCT030 TX14/1312Z TN03/1306Z PROB30 TEMPO 1218/1221 4000 SHRA BKN020 SCT030TCU TEMPO 1300/1310 34012G22KT BECMG 1310/1312 25010KT
BILBAOLEBB121700Z 1218/1318 20009KT 9999 SCT040 TX15/1314Z TN04/1304Z PROB30 TEMPO 1218/1221 RA SHRA SCT030TCU TEMPO 1303/1318 20015G25KT
GRANADALEGR122000Z 1221/1321 VRB02KT CAVOK TX12/1315Z TNM01/1307Z
IBIZALEIB122000Z 1221/1321 33005KT 9999 FEW025 TX16/1309Z TN07/1306Z BECMG 1310/1312 24010KT TEMPO 1315/1321 24015G25KT
JEREZLEJR121700Z 1218/1318 02005KT CAVOK TX16/1315Z TN03/1307Z
LEONLELN121700Z 1218/1303 25006KT 9999 BKN045 PROB40 TEMPO 1300/1303 3000 BR BKN014
MADRIDLEMD121700Z 1218/1324 VRB05KT CAVOK TX10/1314Z TNM01/1307Z PROB30 TEMPO 1318/1324 23010KT
MALAGALEMGAMD 121913Z 1219/1318 30012KT CAVOK TX15/1313Z TN07/1301Z
MENORCALEMH122000Z 1221/1321 36010KT 9999 SCT030 TX15/1309Z TN07/1306Z PROB40 TEMPO 1221/1303 4000 SHRA BKN025 SCT030TCU BECMG 1300/1302 VRB03KT BECMG 1310/1312 24010KT TEMPO 1318/1321 24015G25KT
MURCIALELC121700Z 1218/1318 30005KT CAVOK TX15/1315Z TN06/1306Z
PALMA MALLORCALEPA121700Z 1218/1318 VRB04KT 9999 SCT030 TX15/1312Z TN03/1306Z PROB30 TEMPO 1218/1220 31008KT TEMPO 1310/1312 24012KT
REUSLERS122000Z 1221/1321 VRB04KT 9999 FEW040 TX14/1309Z TN01/1306Z BECMG 1307/1309 25010KT
SANTANDERLEXJ122000Z 1221/1321 22009KT 9999 SCT060 TX15/1314Z TN07/1221Z PROB40 TEMPO 1300/1309 22015G25KT TEMPO 1318/1321 3000 RA
SANTIAGOLESTAMD 121920Z 1219/1318 21009KT 8000 SCT010 BKN020 TX12/1314Z TN06/1307Z TEMPO 1219/1312 BKN010 TEMPO 1219/1312 3000 -RADZ BR BKN005 PROB40 TEMPO 1300/1312 0300 -RADZ BCFG BKN002 TEMPO 1312/1318 23015G25KT TEMPO 1312/1318 3000 RA BR BKN008 PROB40 TEMPO 1312/1318 1500 RA BCFG BKN004
SEVILLALEZL122000Z 1221/1321 03005KT CAVOK TX16/1315Z TN03/1308Z
VALENCIALEVCAMD 121803Z 1218/1318 28008KT CAVOK TX17/1312Z TN02/1306Z TEMPO 1218/1220 33012KT TEMPO 1300/1310 VRB04KT BECMG 1310/1312 26012KT
VALLADOLIDLEVD121700Z 1218/1318 VRB04KT CAVOK TX09/1315Z TN00/1302Z TEMPO 1305/1311 3000 BR PROB40 TEMPO 1305/1310 0100 FG FEW001 TEMPO 1312/1318 BKN011 TEMPO 1314/1318 23010KT
VITORIALEVT121700Z 1218/1318 22006KT 9999 SCT020 TX11/1314Z TN00/1305Z PROB40 TEMPO 1312/1318 23015G25KT
ZARAGOZALEZG121700Z 1218/1318 28010KT 9999 SCT040 TX14/1313Z TN01/1306Z BECMG 1220/1222 23010KT TEMPO 1300/1318 24015G25KT
GRAN CANARIAGCLP122000Z 1221/1321 02025KT 9999 BKN040 TX20/1314Z TN16/1306Z TEMPO 1221/1321 02025G35KT PROB30 TEMPO 1221/1310 4500 RA
LANZAROTEGCRR122000Z 1221/1321 02020KT 9999 SCT040 TX20/1314Z TN14/1306Z TEMPO 1221/1318 02020G30KT
TENERIFE NORTEGCXOAMD 122225Z 1222/1321 34015KT 9999 BKN012 TX16/1314Z TN11/1306Z TEMPO 1222/1310 34015G30KT BECMG 1310/1312 04015KT PROB30 TEMPO 1222/1318 4000 DZRA BCFG BKN007
TENERIFE SURGCTSAMD 122148Z 1221/1321 04020KT 9999 SCT040 TX23/1314Z TN15/1306Z TEMPO 1221/1321 05020G30KT PROB40 TEMPO 1221/1321 05030G43KT

Goto METARs

 

Portugal - 12 Dec 2017 - 2347 UTC

FAROLPFR121700Z 1218/1318 01008KT CAVOK BECMG 1218/1220 33008KT BECMG 1221/1223 VRB03KT BECMG 1303/1305 04008KT BECMG 1310/1312 09010KT BECMG 1316/1318 02007KT
LISBOALPPT121700Z 1218/1324 32005KT 9999 FEW035 BECMG 1303/1306 VRB03KT BKN035 PROB30 1303/1309 5000 DZ BR BKN008 BECMG 1312/1314 12007KT BECMG 1317/1320 24007KT SCT010 BKN025
MADEIRALPMA121700Z 1218/1318 01015KT 9999 SCT015 TEMPO 1218/1318 01018G30KT 6000 -RA BKN012 FEW018TCU PROB30 TEMPO 1218/1318 01025G35KT
PONTA DELGADALPPD121700Z 1218/1318 VRB05KT 9999 FEW015 BKN030 TEMPO 1221/1309 BKN008 BECMG 1312/1315 33007KT
PORTOLPPR121700Z 1218/1318 23005KT 9999 FEW035 BECMG 1218/1220 13005KT BKN035 BECMG 1302/1304 16008KT PROB30 TEMPO 1302/1312 5000 DZ BR SCT004 BKN008 BECMG 1314/1317 18013KT SCT008 BKN018
PORTO SANTOLPPS121700Z 1218/1324 03015KT 9999 SCT015 TEMPO 1218/1320 03020G30KT BKN012 FEW016TCU
SANTA MARIALPAZ121700Z 1218/1324 03010KT 9999 SCT012 BKN030 TEMPO 1218/1318 BKN012 BECMG 1222/1224 33008KT
SINTRA MILITARLPST121408Z 1215/1224 36010KT 9999 FEW020 PROB30 TEMPO 1215/1217 36012G22KT 8000 -SHRA BKN018 BECMG 1216/1218 36005KT

Goto METARs

 

Italia - 12 Dec 2017 - 2347 UTC

ALGHEROLIEA121700Z 1218/1318 VRB05KT 6000 SCT016 BKN030 TEMPO 1218/1224 SHRA BECMG 1305/1307 29012KT BECMG 1215/1218 22010KT
BARILIBD121700Z 1218/1318 18008KT 9999 SCT030 TEMPO 1309/1316 RA
BERGAMO ORIO AL SERIOLIME121700Z 1218/1318 VRB05KT 4000 BR NSC TEMPO 1222/1307 2000 BCFG
BOLOGNALIPE121700Z 1218/1318 VRB05KT 7000 FEW050 BECMG 1220/1222 3000 BR TEMPO 1300/1308 0600 FG BECMG 1308/1310 5000 BECMG 1316/1318 3000
CAPODICHINOLIRN121700Z 1218/1318 19013KT 7000 SCT020 BKN040 BECMG 1307/1309 26013KT TEMPO 1308/1312 SHRA
CATANIA FONTANAROSSALICC121700Z 1218/1318 25008KT 9999 SCT030
CIAMPINOLIRA121700Z 1218/1318 18010KT 6000 SCT015 BKN030 TEMPO 1218/1306 3000 SHRA BECMG 1221/1223 VRB05KT
CROTONELIBC121700Z 1218/1318 22015KT 9999 SCT030
ELMASLIEE121700Z 1218/1318 33012KT 9999 SCT040 TEMPO 1218/1221 RA
FALCONARALIPY121700Z 1218/1318 VRB05KT 9999 SCT030 TEMPO 1218/1306 RA
FIUMICINOLIRF121700Z 1218/1324 21012KT 6000 SCT012 BKN030 TEMPO 1218/1306 3000 SHRA BKN013 BKN030 BECMG 1221/1223 29010KT
GENOVA SESTRILIMJ121700Z 1218/1318 19010KT 9999 BKN040 BECMG 1222/1224 03005KT
LAMPEDUSALICD121700Z 1218/1318 20016KT CAVOK BECMG 1309/1312 36015KT
LINATELIML121700Z 1218/1318 VRB05KT 0500 FG NSC TEMPO 1222/1308 0200 FZFG BKN005 BECMG 1309/1311 4000 BR
MALPENSALIMCAMD 121747Z 1218/1324 VRB05KT 4000 BR TEMPO 1222/1308 1500 BCFG
OLBIA COSTA SMERALDALIEO121700Z 1218/1318 VRB06KT 9999 FEW020 SCT040 TEMPO 1218/1224 RA BECMG 1303/1306 26015KT
PALERMOLICJ121700Z 1218/1318 20015KT 9999 SCT030 BECMG 1309/1311 27010KT TEMPO 1312/1318 RA
PESCARALIBP121700Z 1218/1318 VRB06KT 9999 SCT030 TEMPO 1300/1309 4000 RA TEMPO 1309/1315 SHRA
PISALIRP121700Z 1218/1318 15005KT 9999 SCT030 SCT050 TEMPO 1218/1306 22010KT 5000 RA BR PROB30 TEMPO 1218/1224 3000 SHRA FEW020CB BKN030
REGGIO CALABRIALICR121700Z 1218/1318 20015KT 9999 SCT030 BECMG 1219/1221 VRB05KT BECMG 1310/1312 01010KT
TORINOLIMF121700Z 1218/1318 VRB05KT 3000 BR NSC TEMPO 1222/1307 0400 FZFG
URBELIRU121400Z 1215/1224 16012KT 6000 SCT020 BECMG 1215/1218 VRB05KT TEMPO 1215/1224 4000 SHRA
VENEZIA TESSERALIPZ121700Z 1218/1324 VRB05KT 7000 SCT040 BECMG 1218/1220 3000 BR BKN010 TEMPO 1300/1308 0800 FG BECMG 1306/1309 03012KT SCT025 BECMG 1316/1318 VRB05KT

Goto METARs

 

Baltic - 12 Dec 2017 - 2347 UTC

LENNART MERI TALLINNEETN121714Z 1218/1318 19012KT 9999 BKN006 BKN013 TEMPO 1218/1306 2000 RASN BKN003 BKN010 BECMG 1222/1224 29015G25KT BECMG 1307/1309 SCT006 BKN015 BECMG 1310/1312 20012KT PROB40 TEMPO 1313/1318 20015G25KT 2000 SHSNRA BKN005 SCT013CB
TARTUEETU 
RIGA INTLEVRA122014Z 1221/1321 19015KT 9999 OVC015 TEMPO 1221/1224 21017G30KT BKN005 FM130000 24012KT 8000 OVC010 TEMPO 1300/1304 25015G30KT 3000 -SHRA BKN005 SCT010CB BECMG 1306/1308 19010KT BKN015
LIEPAJA INTLEVLA122012Z 1221/1321 21020G30KT 8000 -RA BKN010 FM122200 27020G30KT 9999 BKN007 TEMPO 1222/1305 25022G35KT 4000 -RA BKN003 TEMPO 1305/1308 24015G28KT BECMG 1305/1306 BKN015 BECMG 1309/1311 20015KT TEMPO 1311/1321 18020G30KT BKN010
KAUNAS INTLEYKA121706Z 1218/1318 22018G32KT 9000 BKN025 TEMPO 1301/1304 3000 RASN OVC005 BECMG 1304/1306 25014KT BKN012 TEMPO 1309/1312 BKN015CB
SIAULIAI INTLEYSA122002Z 1221/1306 23020G34KT 9000 BKN020 TEMPO 1221/1304 5000 RA SCT010 BECMG 1304/1305 25016KT
PALANGA INTLEYPA121704Z 1218/1318 22018G32KT 9000 BKN015 TEMPO 1218/1221 23023G40KT BECMG 1221/1223 29016G32KT TEMPO 1222/1301 2000 RASN OVC005 BECMG 1303/1305 22015KT TEMPO 1306/1311 BKN012CB
VILNIUS INTLEYVI121707Z 1218/1318 20012G22KT 7000 BKN020 TEMPO 1218/1223 22022G32KT TEMPO 1223/1306 SCT005
KHRABROVOUMKK122000Z 1221/1321 23011G18MPS 9999 BKN011 BKN020 TEMPO 1221/1309 3100 -SHRASN BKN005 BKN015CB BECMG 1300/1302 26006G16MPS BECMG 1306/1308 23008G14MPS BECMG 1314/1316 19007G13MPS

Goto METARs

 

Nordic - 12 Dec 2017 - 2347 UTC

DENMARK
AALBORGEKYT122021Z 1221/1318 21008KT 9999 SCT020 BKN080 TEMPO 1221/1306 3000 -SHRASN BR BKN006 SCT020CB BECMG 1306/1308 19012KT 6000 -RADZ BKN012 TEMPO 1308/1316 18018G28KT 2500 RASN BR BKN008 SCT020TCU TEMPO 1316/1318 18012G22KT 2500 RASN BR BKN003 SCT020TCU
AARHUSEKAH121701Z 1218/1318 22010KT 9999 BKN020 TEMPO 1220/1301 SHRA SCT020CB BECMG 1306/1308 19018G30KT BECMG 1310/1312 -RADZ BKN012 TEMPO 1312/1318 20020KT 3000 RASN BR BKN006
BILLUNDEKBI121701Z 1218/1318 20010KT 9999 SCT020 TEMPO 1220/1301 SHRA BKN020CB TEMPO 1303/1305 BKN008 BECMG 1305/1307 -RADZ BKN006 TEMPO 1307/1318 20018G28KT 2500 RASN BR BKN004
BORNHOLM RONNEEKRN 
ESBJERGEKEB 
KARUPEKKA122021Z 1221/1318 21008KT 9999 SCT020 BKN080 TEMPO 1221/1305 3000 -SHRASN BR BKN006 SCT020CB BECMG 1305/1307 19012KT 6000 -RADZ BKN012 TEMPO 1307/1315 18018G28KT 2500 RASN BR BKN006 SCT020TCU TEMPO 1315/1318 18012G22KT 2500 RASN BR BKN003 SCT020TCU
KASTRUP COPENHAGENEKCH121701Z 1218/1318 26010KT 9999 SCT020 BECMG 1300/1303 21020G32KT TEMPO 1312/1318 RA BKN012
ODENSEEKOD 
ROSKILDEEKRK122002Z 1221/1306 23012KT 9999 BKN020 TEMPO 1305/1306 20015G25KT
SKRYDSTRUPEKSP122021Z 1221/1318 21008KT 9999 SCT020 BKN080 TEMPO 1221/1305 3000 -SHRASN BR BKN006 SCT020CB BECMG 1305/1307 19012KT 6000 -RADZ BKN012 TEMPO 1307/1315 18018G30KT 2500 RASN BR BKN006 SCT020TCU TEMPO 1315/1318 18012G22KT 2500 RASN BR BKN003 SCT020TCU
VAMDRUPEKVD 
SWEDEN
ANGELHOLMESTA 
ARE OSTERSUNDESNZAMD 122117Z 1221/1224 28004KT 9999 OVC002 TEMPO 1221/1224 0500 BCFG SCT002
GOTHENBURG CITYESGP 
GOTHENBURG LANDVETTERESGG121730Z 1218/1318 28005KT CAVOK BECMG 1222/1224 -SN OVC003 PROB40 1223/1301 -FZRA TEMPO 1300/1304 1200 SHSNRA BKN010 BKN020TCU BECMG 1301/1303 21012KT BECMG 1304/1305 BKN030 BECMG 1307/1309 BKN008 TEMPO 1309/1318 2000 SNRA OVC004
HALMSTADESMT 
KALMARESMQ 
KIRUNAESNQ122030Z 1221/1224 36004KT 6000 -SN SCT010 BKN025 TEMPO 1221/1224 1800 SN VV008
LULEAESPA122030Z 1221/1224 36008KT 4000 -SN VV015 TEMPO 1221/1224 1200 SN VV006
MALMOESMS121702Z 1218/1318 31012KT 9999 BKN025 BECMG 1219/1222 22012KT TEMPO 1303/1314 22018G28KT TEMPO 1314/1318 18018G30KT RASN BKN012
SAABESSL 
STOCKHOLM ARLANDAESSA121730Z 1218/1318 31009KT 9999 SCT009 BKN018 TEMPO 1218/1220 BKN009 BECMG 1308/1310 20010KT PROB40 1309/1314 BKN006
STOCKHOLM BROMMAESSB 
STOCKHOLM SKAVSTAESKNAMD 121938Z 1219/1318 30010KT 4000 -SN BKN012 BECMG 1220/1222 9999 NSW BKN015 BECMG 1304/1306 21008KT TEMPO 1305/1309 4000 -SN BKN004
UMEAESNU122030Z 1221/1306 33008KT 9999 -SN BKN030
VISBYESSV 
NORWAY
ANDOYAENANCOR 1218/1318 20008KT CAVOK TEMPO 1312/1318 35010KT 2000 SHSN VV012
ALTAENAT 
AROENHF122000Z 1221/1306 VRB05KT CAVOK
BARDUFOSSENDU1218/1318 VRB05KT 9999 FEW040 PROB30 TEMPO 1218/1306 1200 PRFG TEMPO 1312/1318 2000 SN VV008
BODOENBOCOR 1218/1318 09008KT 9999 FEW040 TEMPO 1306/1318 18012KT
EVENESENEV122000Z 1221/1224 VRB05KT CAVOK
FLESLANDENBRCOR 1218/1318 VRB05KT 9999 FEW015 BKN030 PROB30 TEMPO 1218/1303 2000 SHSN VV009 BECMG 1300/1303 15015KT TEMPO 1305/1310 15020G30KT 2000 SNRA VV009 BECMG 1309/1311 21012KT TEMPO 1310/1315 22015G25KT 4000 SHRAGS BKN014CB BECMG 1316/1318 15010KT
FLOROENFL 
GARDERMOENENGM1218/1318 VRB05KT CAVOK BECMG 1310/1312 3000 -SN BKN008 TEMPO 1311/1315 2000 SN VV004 PROB40 1315/1318 0500 FZFG VV001
KARMOYENHD 
KJEVIKENCN 
LANGNESENTC1218/1318 VRB05KT CAVOK TEMPO 1312/1318 4000 -SN BKN012
LEIRINENFB 
LONGYEARENSB1218/1318 10012KT 9999 SCT025 BKN035
NARVIK/FRAMNESENNK 
ROROSENRO 
RYGGEENRY1218/1318 VRB05KT CAVOK BECMG 1307/1309 3000 -SN BKN008 PROB40 1308/1311 2000 FZRA BR BKN004 BECMG 1310/1312 18020G30KT RADZ BR BECMG 1315/1317 18008KT 9999 NSW BKN015
SOLAENZV 
VAERNESENVACOR 1218/1318 12007KT 9999 FEW015 BKN030 TEMPO 1218/1307 0800 SHSN VV006 BECMG 1221/1223 24012KT TEMPO 1223/1305 26015G25KT BECMG 1307/1309 12007KT
VIGRAENAL 
FINLAND
HELSINKIEFET 
TAMPERE PIRKKALAEFTP122026Z 1221/1321 28010KT 3500 -SN BKN005 BECMG 1221/1223 9999 SCT008 BKN015 TEMPO 1223/1304 BKN008 BECMG 1307/1309 22010KT BECMG 1316/1318 BKN008
TURKUEFTU122035Z 1221/1321 29007KT 9999 BKN008 BKN023 BECMG 1221/1223 BKN015 TEMPO 1221/1304 5000 -SN TEMPO 1315/1320 6000 -RASN BKN012
ICELAND
AKUREYRIBIAR122000Z 1221/1321 13010KT 9000 SN SCT012 OVC020 TX00/1309Z TNM03/1218Z TEMPO 1221/1314 1500 SN OVC005 BECMG 1303/1306 35010KT
EGILSSTADIRBIEG122000Z 1221/1321 11015KT 9999 RASN SCT020 OVC030 TX03/1221Z TN00/1315Z TEMPO 1221/1309 5000 RASN BKN010 OVC020 BECMG 1309/1312 02013KT 3000 SN OVC010
KEFLAVIK INTLBIKF122000Z 1221/1321 17012KT 9999 SCT020 BKN030 TX01/1222Z TNM03/1312Z BECMG 1222/1301 09010KT SCT030 BECMG 1315/1318 03015KT
REYKJAVIKBIRK122000Z 1221/1321 09010KT 9999 FEW030 SCT055 TX01/1222Z TNM03/1316Z
GREENLAND
ILULISSAT JAKOBSHAVNBGJNAMD 122300Z 1223/1301 09012KT 9999 FEW080 TEMPO 1223/1301 10018KT DRSN BKN020
KANGERLUSSUAQ S.STROMFBGSFAMD 122035Z 1220/1301 06006KT 9999 BKN030 TEMPO 1220/1301 22005KT 1200 -SN BKN010
KULUSUKBGKKAMD 122030Z 1220/1224 07015G25KT 8000 -SN BKN040 TEMPO 1220/1222 05035G52KT 1000 SN DRSN BLSN BKN014
NARSARSUAQBGBWAMD 121700Z 1217/1224 VRB05KT 8000 SCT090 PROB40 1217/1224 22008KT 2500 -SN BKN006
NUUK GODTHAABBGGH122034Z 1221/1224 29012KT 9999 -SN SCT012 BKN035 TEMPO 1221/1224 1200 SN BLSN DRSN VV006
PITUFFIK THULEBGTLAMD 122010Z 1220/1324 09009KT 9999 FEW100 QNH2902INS BECMG 1305/1306 VRB06KT 9999 SCT060 BKN120 QNH2928INS BECMG 1310/1311 VRB06KT 9999 SCT080 BKN150 QNH2943INS TXM16/1220Z TNM24/1312Z LAST NO AMDS AFT 1220 NEXT 1302
SISIMIUT HOLSTEINSBORGBGSS 

Goto METARs

 

Other Airports - 12 Dec 2017 - 2347 UTC

IRELAND
DUBLINEIDW121700Z 1218/1318 24018G30KT 9999 FEW012 BKN030 BECMG 1218/1219 27015G26KT BECMG 1219/1221 27013KT BECMG 1221/1224 24010KT BECMG 1303/1305 23016G27KT TEMPO 1305/1310 5000 -RA BKN013 FEW018CB BECMG 1310/1312 26015KT BECMG 1312/1314 26016G27KT TEMPO 1314/1318 25020G32KT 5000 SHRA SCT012 SCT018CB PROB30 TEMPO 1315/1318 3000 TSRA BKN010
SHANNONEINNCOR 121825Z 1218/1318 29013KT 9999 FEW012 BKN030 BECMG 1220/1223 26013KT BECMG 1300/1303 23015KT TEMPO 1302/1308 5000 -RA BKN012 FEW018CB BECMG 1303/1305 24017G28KT BECMG 1306/1308 27017G28KT BECMG 1308/1310 28020G33KT TEMPO 1309/1313 -SHRA SCT018CB BECMG 1311/1313 25022G35KT TEMPO 1313/1318 5000 SHRA SCT010 SCT018CB PROB30 TEMPO 1313/1315 3000 TSRA BKN010 BECMG 1314/1316 28020G33KT BECMG 1316/1318 29025G39KT
CORKEICK121700Z 1218/1318 30013KT 9999 FEW015 BKN025 BECMG 1218/1221 26007KT BECMG 1300/1303 23008KT PROB40 TEMPO 1301/1304 -SHRA BKN012 TEMPO 1304/1309 4000 -RA BKN010 BECMG 1305/1307 24014KT BECMG 1307/1310 27015G26KT BECMG 1310/1312 28020G33KT BECMG 1312/1314 25022G35KT TEMPO 1313/1316 4000 SHRA BKN010 SCT018CB BECMG 1315/1317 28022G36KT TEMPO 1316/1318 5000 SHRA SCT010 SCT018CB
IRELAND WESTEIKN121700Z 1218/1318 29013KT 9999 SCT017 BKN030 BECMG 1219/1222 25008KT PROB30 TEMPO 1223/1302 5000 -SHRA BKN010 BECMG 1300/1303 22013KT TEMPO 1302/1306 4000 RA BKN008 FEW017CB BECMG 1304/1306 26013KT TEMPO 1306/1311 5000 SHRA SCT010 SCT017CB BECMG 1310/1312 27017G28KT TEMPO 1311/1314 3000 SHRA TS BKN008 SCT016CB BECMG 1312/1315 24016G27KT TEMPO 1314/1318 3000 SHRASN BKN005 SCT016CB BECMG 1315/1317 27017G28KT TEMPO 1317/1318 28022G35KT
POLAND
LECHA WALESYEPGD121730Z 1218/1318 25012KT 9999 BKN017 TEMPO 1218/1224 27016G32KT 3000 RA RASN BKN005 PROB40 1300/1307 BKN004 BECMG 1308/1310 18012KT
BALICEEPKK121730Z 1218/1318 25010KT 9999 BKN030 TEMPO 1218/1221 25015G25KT TEMPO 1221/1306 BKN014 BECMG 1309/1312 VRB02KT
PYRZOWICEEPKT121730Z 1218/1318 25010KT 9999 BKN030 TEMPO 1218/1221 25015G25KT PROB30 TEMPO 1300/1306 VRB02KT BKN014 BECMG 1309/1312 18010KT
MODLINEPMO121730Z 1218/1318 27016KT CAVOK TEMPO 1218/1222 27022G34KT PROB40 TEMPO 1222/1302 27015G26KT PROB40 TEMPO 1302/1309 BKN012 BECMG 1313/1316 20005KT
LAWICAEPPO121730Z 1218/1318 24010KT 9999 BKN040 PROB40 TEMPO 1218/1221 24016G28KT BECMG 1220/1223 BKN014 PROB40 1223/1307 BKN006 OVC011 BECMG 1308/1310 18010KT SCT023
WARSAW CHOPINEPWA121730Z 1218/1318 27014KT 9999 SCT040 TEMPO 1218/1220 27020G32KT PROB40 TEMPO 1220/1224 27015G26KT PROB40 TEMPO 1302/1309 BKN014 BECMG 1313/1316 20005KT
GREECE
ELEFTHERIOS VENIZELOSLGAV121700Z 1218/1318 20010KT 9999 FEW035 PROB30 1300/1304 5000 BR SCT012
NIKOS KAZANTZAKISLGIR121700Z 1218/1318 VRB05KT 9999 FEW020 BECMG 1218/1220 18010KT BECMG 1306/1308 29015KT
KOSLGKO121700Z 1218/1318 VRB03KT 9999 FEW015 SCT020 BECMG 1219/1221 31012KT
MIKONOSLGMK122000Z 1221/1306 26010KT 9999 FEW018 PROB30 1300/1306 5000 BR SCT010
DIAGORASLGRP121700Z 1218/1318 29012KT 9999 FEW015 SCT030 TEMPO 1306/1312 29012G25KT
SOUDALGSA121700Z 1218/1318 VRB05KT 9999 FEW020 BECMG 1304/1306 26015KT SCT025
SANTORINILGSR121700Z 1218/1318 25006KT 9999 FEW020 TEMPO 1303/1312 BKN020 BECMG 1222/1224 27018KT
MAKEDONIALGTS121700Z 1218/1318 VRB03KT CAVOK BECMG 1222/1224 5000 BR SCT008 PROB40 TEMPO 1303/1308 0500 FG BKN005 BECMG 1308/1310 9999 FEW030
TURKEY
ANTALYALTAI121640Z 1218/1318 34006KT CAVOK
ATATURKLTBA121640Z 1218/1324 21010KT CAVOK BECMG 1321/1324 23015G25KT
ADNAN MENDERESLTBJ121640Z 1218/1318 VRB02KT CAVOK BECMG 1300/1302 3200 BR PROB40 1302/1306 0300 FG VV001 BECMG 1306/1308 5000 BECMG 1308/1310 9999 NSW FEW030 BECMG 1315/1317 CAVOK
DALAMANLTBS121640Z 1218/1318 01006KT CAVOK BECMG 1307/1309 FEW030 BECMG 1315/1316 CAVOK
MALTA
LUQA INTLLMML121700Z 1218/1318 21010KT 9999 FEW025 BECMG 1315/1318 30015KT
ISRAEL
BEN GURIONLLBG121704Z 1218/1318 17007KT CAVOK PROB40 1302/1307 6000 SCT012 BECMG 1307/1309 27010KT 9999 SCT025 TX22/1312Z TN14/1304Z
SDE DOVLLSD121703Z 1218/1318 17006KT CAVOK BECMG 1302/1304 21012KT 7000 SCT012 PROB40 1304/1307 5000 BR BKN010 BECMG 1307/1309 26010KT 9999 SCT025 TX21/1312Z TN15/1304Z
MOROCCO
AL MASSIRA INTLGMAD121700Z 1218/1324 04006KT CAVOK BECMG 1312/1314 26010KT
MOHAMMED V INTLGMMN121700Z 1218/1324 02010KT 9999 BKN016 TEMPO 1304/1308 5000 BECMG 1309/1312 36010KT
MENARAGMMX121700Z 1218/1324 08008KT 8000 BKN020 PROB30 TEMPO 1304/1310 4000 BR BKN013
EGYPT
CAIRO INTLHECACOR 122100Z 1221/1324 VRB03KT 4000 HZ NSC TEMPO 1300/1307 2000 BR TEMPO 1301/1306 1000 PROB40 TEMPO 1302/1305 0800 FG
HURGHADA INTLHEGN121700Z 1218/1324 32010KT CAVOK BECMG 1307/1309 36010G22KT
LUXOR INTLHELX121700Z 1218/1324 28006KT CAVOK TEMPO 1304/1312 VRB03KT 6000 NSC
SHARM EL SHEIKH INTLHESH121700Z 1218/1324 33011KT CAVOK
EAST EUROPE
SOFIALBSF121700Z 1218/1318 VRB04KT 3000 BR NSC BECMG 1222/1224 1500 BR SCT007 TEMPO 1300/1307 0600 FZFG BKN002 BECMG 1307/1309 5000 BR SCT010 BECMG 1310/1312 08008KT 9999 SCT060
LARNACALCLK121730Z 1218/1318 33009KT 9999 FEW030
ZAGREBLDZA121725Z 1218/1318 20006KT 9999 BKN030 TX09/1218Z TN02/1306Z PROB40 TEMPO 1218/1310 4000 RA BKN010 OVC030 BECMG 1303/1305 03015KT PROB30 TEMPO 1305/1310 3000 -RASN BKN006 OVC020 BECMG 1306/1308 03008KT BECMG 1310/1312 VRB02KT
BUDAPEST LISZT FERENCLHBP121715Z 1218/1318 33006KT 9999 OVC035 BECMG 1218/1220 33012KT -RA TEMPO 1220/1302 5000 RA BKN020 OVC040 BECMG 1303/1306 31007KT CAVOK BECMG 1312/1314 VRB03KT
LJUBLJANALJLJ122000Z 1221/1321 27004KT 9999 SCT040 OVC100 TEMPO 1221/1303 10003KT -RA BKN035 OVC060 BECMG 1303/1305 10005KT 7000 RASN BKN010 OVC020 BECMG 1305/1307 3500 SN TEMPO 1306/1311 10010KT 0800 VV006 BECMG 1312/1315 7000 NSW TEMPO 1315/1321 SCT010 OVC020
RUZYNELKPR121700Z 1218/1400 22012KT 9999 SCT040 TEMPO 1218/1220 24016G28KT BECMG 1218/1220 CAVOK BECMG 1318/1320 BKN030 TEMPO 1321/1400 5000 SNRA BKN013
HENRI COANDALROP121700Z 1218/1318 25012KT CAVOK
BEOGRADLYBE121700Z 1218/1318 18009KT CAVOK TX15/1218Z TN04/1318Z BECMG 1305/1307 32010KT BECMG 1309/1311 4000 -RA BR BKN010 BKN027
M R STEFANIK INTLLZIB121700Z 1218/1318 32006KT 9999 FEW043 BKN070 PROB40 TEMPO 1218/1222 28014KT -RA FEW035 OVC050 BECMG 1300/1302 CAVOK BECMG 1312/1314 20005KT
BORYSPIL INTLUKBB121700Z 1218/1318 22004G09MPS 6000 BKN012 TEMPO 1220/1224 1400 BR BKN003 TEMPO 1300/1307 24003MPS 0500 -DZ FG OVC002 BECMG 1307/1309 34004G09MPS TEMPO 1309/1318 3000 -SHRA BR BKN006 SCT015CB TX03/1312Z TN01/1306Z
PULKOVOULLI121959Z 1221/1321 18008G14MPS 5000 -RA BKN011 BKN020 TEMPO 1221/1304 21005G11MPS 3100 -SHRA BKN010 BKN015CB BECMG 1304/1306 23005G11MPS 6000 NSW TEMPO 1304/1312 25008G14MPS 3100 -SHSNRA BKN011 BKN015CB TEMPO 1316/1321 3100 -SHSN BLSN BKN011 BKN015CB
MURMANSKULMM121955Z 1221/1321 13003G08MPS 3100 -SHSN BR BKN007 BKN011CB TEMPO 1221/1309 16004G09MPS 0300 +SHSN VV001 TEMPO 1309/1321 16006G11MPS 2100 -SHSN BKN005 BKN011CB
KHRABROVOUMKK122000Z 1221/1321 23011G18MPS 9999 BKN011 BKN020 TEMPO 1221/1309 3100 -SHRASN BKN005 BKN015CB BECMG 1300/1302 26006G16MPS BECMG 1306/1308 23008G14MPS BECMG 1314/1316 19007G13MPS
SHEREMETYEVOUUEE122000Z 1221/1321 14005MPS 6000 OVC005 TX03/1312Z TNM02/1321Z TEMPO 1221/1306 3100 BR BKN003 BECMG 1300/1304 20005MPS BECMG 1306/1310 BKN011
VNUKOVOUUWWAMD 122218Z 1222/1321 15005MPS 1000 BR OVC002 TX02/1312Z TNM00/1321Z TEMPO 1222/1308 0300 FG OVC001 BECMG 1300/1302 19005MPS FM130800 25005MPS 9999 BKN010



RocketRoute Online Flight Planning. FREE trial

ABBREVIATIONS

-light
+heavy
/visual range follows
A01autosite - no precip sensor
A02autosite - precip sensor
ACaltocumulus
ACCaltocumulus castellanus
ACSLaltocumulus standing lenticular cloud
AMDamended
ASaltastratus
ASRaltimeter setting region
AUTOautomated report
BCpatches
BECMGbecoming
BKNbroken (5-7 oktas)
BLblowing
BLWbelow
BRmist
BTNbetween
CAVOK+10KM NoCBs NoCloud -5000ft
CBcumulonimbus cloud
CBMAMcumulonimbus mammatus cloud
CCcloud-cloud lightning
CCSLcirrocumulus standing lenticular cloud
CGcloud-ground lightning
CHIcloud-height indicator
CHINOsky condition at 2nd location not avail
CIcirrus
CIGceiling
CITnear or over large towns
CLDcloud
CLRclear
CLRDcleared contamination
CONScontinuous
CORcorrection
CScirrostratus
CUcumulus
DRVR visibility going down
DPdew point
DRlow drifting
DSduststorm
DSNTdistant
DUwidespread dust
DUCdense upper cloud
DZdrizzle
Eeast
EMBDembedded
FCfunnel cloud
FCSTforecast
FEWfew clouds (1-2 oktas)
FGfog
FLflight level
FMfrom
FROPAfrontal passage
FRQfrequent
FTfeet
FUsmoke
FZfreezing
FZRANOfreezing rain sensor out
Ggust
GRhail
GSsmall hail
HVYheavy
HZhaze
ICice crystals, in-cloud lightning
INTSFintensifying
IRVRinstrumented RVR
ISOLisolated
JTSTjet stream
KMkilometer
KMHkilometer per hour
KTknots
Lleft runway
LANinland or over land
LASTlast observation before break
LCAlocally
LDGlanding
LSTLocal Standard Time
LSQline squall
LTGlightning
LVlight and variable
LWRlower
Mminus
MBmillibars
METARaviation routine weather
MIshallow
MODmoderate
MONabove or covering mountains
MOVmoved/moving/movement
MPSmeters per second
MSminus
MSLmean sea level
MTmountains
MTWmountain waves
Nnorth
N/Anot applicable
NATnorth atlantic
NCDno cloud detected
NDVno directional variation
NSWno significant weather
NEnortheast
NOSIGno significant change expected
NOSPECIno SPECI reports are taken
NWnorthwest
NSCno significant cloud
NSWno significant weather
OCNLoccasional
OVCovercast (8 oktas)
OHDoverhead
Pgreater than (plus)
PEice pellets
PK WNDpeak wind
PNOprecipitation amount not available
POdust/sand whirls (dust devils)
PRpartial
PROP30probability 30%
PROP40probability 40%
PRESFRpressure falling rapidly
PRESRRpressure rising rapidly
PSplus
PWINOprecipitation identifier sensor not avail
PYspray
Rright runway
RArain
RMKremarks
RRRocket Route
RVRRunway Visual Range
RWYrunway
RVRNORVR system not available
Ssouth
SAsand
SCSLstratocumulus standing lenticular cloud
SCTscattered (3-4 oktas)
SEsoutheast
SEVsevere
SFCsurface
SGsnow grains
SHshower(s)
SKCsky clear
SLPsea-level pressure
SLPNOsea-level pressure not available
SMstatute miles
SNsnow
SNOCLOrunway closed due to contamination
SNINCRsnow increasing rapidly
SPECIan unscheduled report taken
SQsqualls
SSsandstorm
STNRstationary
SWsouthwest
TAFterminal aerodrome forecast
TKOFtakeoff
TCUtowering cumulus
TLuntil
TOPcloud top
TROPtropopause
TSthunderstorm
TSNOthunderstorm information not available
TWRtower
URVR visibility going up
UPunknown precipitation
UTCtCoordinated Universal Time
Vvariable
VAvolcanic ash
VCin the vicinity
VISvisibility
VISNOvisibility at secondary location not avail
VRBvariable
VSPvertical speed
VVvertical visibility
Wwest
WG/SOWorking Group for Surface Observations
WNDwind
WSPDwind speed
WSwind shear
WSHFTwind shift
WXweather
Zzulu utc time

RUNWAY REPORTS

METAR Runway Reports may include runway reports which contain information about snow/water coverage and friction coefficient.
A runway report consists of eight digits in five groups (RRRRERCReReRBRBR) with the following interpretation:

RRRR

Runway designator. The numerical identifier of the runway in question.
88 means all runways, 99 indicates repetition of previous report.

If there are two parallel runways, the right one is indicated by adding 50
to its number. For example, runway 04L (or 04) is denoted by 04, whereas 54 means runway 04R.

ER

Type of deposit on runway.

CR

Extent of deposit.

eReR

Depth of deposit.

BRBR

Friction coefficient or braking action

Note: CLRD may replace elements t, e and dd if the runway has been cleared of deposits. For example, 54CLRD95 means runway 04R cleared, braking action good.


Military METAR Colour Codes

BlackAirfield closed for non-Met reasons
RED RedCloud under 200ft, and/or Visibility under 800m
AMB AmberBetter than Red, but cloud under 300ft, and/or Visibility under 1600m
YLO YellowBetter than Amber, but cloud under 700ft, and/or Visibility under 3700m.
GRE GreenBetter than Yellow, but cloud under 1500ft, and/or Visibility under 5km
WHT WhiteBetter than Green, but Cloud under 2500ft, and/or Visibility under 8km
BLU BlueCloud 2500ft or above and Visibility 8km or more
Cloud in this case is the lowest cloudbase designated as SCATTERED or worse.


NOTE use of any of these pages are your own responsibility
Always double check with other sources.